sensor_id;sensor_type;location;lat;lon;timestamp;temperature;humidity
6357;DHT22;3211;53.452;-2.264;2022-08-06T00:00:13;14.00;99.90
6357;DHT22;3211;53.452;-2.264;2022-08-06T00:02:55;14.00;99.90
6357;DHT22;3211;53.452;-2.264;2022-08-06T00:05:38;13.90;99.90
6357;DHT22;3211;53.452;-2.264;2022-08-06T00:08:20;13.90;99.90
6357;DHT22;3211;53.452;-2.264;2022-08-06T00:11:02;13.80;99.90
6357;DHT22;3211;53.452;-2.264;2022-08-06T00:13:44;13.80;99.90
6357;DHT22;3211;53.452;-2.264;2022-08-06T00:16:26;13.90;99.90
6357;DHT22;3211;53.452;-2.264;2022-08-06T00:19:07;13.80;99.90
6357;DHT22;3211;53.452;-2.264;2022-08-06T00:21:51;13.60;99.90
6357;DHT22;3211;53.452;-2.264;2022-08-06T00:24:33;13.60;99.90
6357;DHT22;3211;53.452;-2.264;2022-08-06T00:27:15;13.70;99.90
6357;DHT22;3211;53.452;-2.264;2022-08-06T00:29:57;13.70;99.90
6357;DHT22;3211;53.452;-2.264;2022-08-06T00:32:39;13.70;99.90
6357;DHT22;3211;53.452;-2.264;2022-08-06T00:35:21;13.60;99.90
6357;DHT22;3211;53.452;-2.264;2022-08-06T00:38:04;13.50;99.90
6357;DHT22;3211;53.452;-2.264;2022-08-06T00:40:46;13.40;99.90
6357;DHT22;3211;53.452;-2.264;2022-08-06T00:43:29;13.40;99.90
6357;DHT22;3211;53.452;-2.264;2022-08-06T00:46:11;13.30;99.90
6357;DHT22;3211;53.452;-2.264;2022-08-06T00:48:53;13.30;99.90
6357;DHT22;3211;53.452;-2.264;2022-08-06T00:51:35;13.20;99.90
6357;DHT22;3211;53.452;-2.264;2022-08-06T00:54:19;13.10;99.90
6357;DHT22;3211;53.452;-2.264;2022-08-06T00:57:03;13.20;99.90
6357;DHT22;3211;53.452;-2.264;2022-08-06T00:59:45;13.20;99.90
6357;DHT22;3211;53.452;-2.264;2022-08-06T01:02:26;13.10;99.90
6357;DHT22;3211;53.452;-2.264;2022-08-06T01:05:08;13.00;99.90
6357;DHT22;3211;53.452;-2.264;2022-08-06T01:07:50;12.90;99.90
6357;DHT22;3211;53.452;-2.264;2022-08-06T01:10:36;12.90;99.90
6357;DHT22;3211;53.452;-2.264;2022-08-06T01:13:18;13.00;99.90
6357;DHT22;3211;53.452;-2.264;2022-08-06T01:16:07;13.10;99.90
6357;DHT22;3211;53.452;-2.264;2022-08-06T01:18:59;13.10;99.90
6357;DHT22;3211;53.452;-2.264;2022-08-06T01:21:51;12.90;99.90
6357;DHT22;3211;53.452;-2.264;2022-08-06T01:24:47;12.80;99.90
6357;DHT22;3211;53.452;-2.264;2022-08-06T01:27:38;12.80;99.90
6357;DHT22;3211;53.452;-2.264;2022-08-06T01:33:29;12.70;99.90
6357;DHT22;3211;53.452;-2.264;2022-08-06T01:36:19;12.60;99.90
6357;DHT22;3211;53.452;-2.264;2022-08-06T01:39:01;12.50;99.90
6357;DHT22;3211;53.452;-2.264;2022-08-06T01:41:45;12.50;99.90
6357;DHT22;3211;53.452;-2.264;2022-08-06T01:44:33;12.60;99.90
6357;DHT22;3211;53.452;-2.264;2022-08-06T01:47:18;12.70;99.90
6357;DHT22;3211;53.452;-2.264;2022-08-06T01:50:06;12.70;99.90
6357;DHT22;3211;53.452;-2.264;2022-08-06T01:52:51;12.70;99.90
6357;DHT22;3211;53.452;-2.264;2022-08-06T01:55:38;12.60;99.90
6357;DHT22;3211;53.452;-2.264;2022-08-06T01:58:26;12.60;99.90
6357;DHT22;3211;53.452;-2.264;2022-08-06T02:01:12;12.60;99.90
6357;DHT22;3211;53.452;-2.264;2022-08-06T02:03:56;12.60;99.90
6357;DHT22;3211;53.452;-2.264;2022-08-06T02:06:43;12.50;99.90
6357;DHT22;3211;53.452;-2.264;2022-08-06T02:09:26;12.60;99.90
6357;DHT22;3211;53.452;-2.264;2022-08-06T02:12:11;12.50;99.90
6357;DHT22;3211;53.452;-2.264;2022-08-06T02:14:56;12.40;99.90
6357;DHT22;3211;53.452;-2.264;2022-08-06T02:17:44;12.40;99.90
6357;DHT22;3211;53.452;-2.264;2022-08-06T02:20:31;12.40;99.90
6357;DHT22;3211;53.452;-2.264;2022-08-06T02:23:16;12.40;99.90
6357;DHT22;3211;53.452;-2.264;2022-08-06T02:25:59;12.40;99.90
6357;DHT22;3211;53.452;-2.264;2022-08-06T02:28:42;12.40;99.90
6357;DHT22;3211;53.452;-2.264;2022-08-06T02:31:25;12.40;99.90
6357;DHT22;3211;53.452;-2.264;2022-08-06T02:34:08;12.30;99.90
6357;DHT22;3211;53.452;-2.264;2022-08-06T02:36:55;12.20;99.90
6357;DHT22;3211;53.452;-2.264;2022-08-06T02:39:43;12.20;99.90
6357;DHT22;3211;53.452;-2.264;2022-08-06T02:42:30;12.20;99.90
6357;DHT22;3211;53.452;-2.264;2022-08-06T02:45:17;12.30;99.90
6357;DHT22;3211;53.452;-2.264;2022-08-06T02:48:07;12.20;99.90
6357;DHT22;3211;53.452;-2.264;2022-08-06T02:50:53;12.20;99.90
6357;DHT22;3211;53.452;-2.264;2022-08-06T02:53:43;12.20;99.90
6357;DHT22;3211;53.452;-2.264;2022-08-06T02:56:27;12.20;99.90
6357;DHT22;3211;53.452;-2.264;2022-08-06T02:59:12;12.20;99.90
6357;DHT22;3211;53.452;-2.264;2022-08-06T03:01:57;12.20;99.90
6357;DHT22;3211;53.452;-2.264;2022-08-06T03:04:45;12.00;99.90
6357;DHT22;3211;53.452;-2.264;2022-08-06T03:07:32;12.10;99.90
6357;DHT22;3211;53.452;-2.264;2022-08-06T03:10:17;12.20;99.90
6357;DHT22;3211;53.452;-2.264;2022-08-06T03:13:01;12.10;99.90
6357;DHT22;3211;53.452;-2.264;2022-08-06T03:15:45;12.00;99.90
6357;DHT22;3211;53.452;-2.264;2022-08-06T03:18:29;12.10;99.90
6357;DHT22;3211;53.452;-2.264;2022-08-06T03:21:14;12.00;99.90
6357;DHT22;3211;53.452;-2.264;2022-08-06T03:24:00;12.00;99.90
6357;DHT22;3211;53.452;-2.264;2022-08-06T03:26:44;11.90;99.90
6357;DHT22;3211;53.452;-2.264;2022-08-06T03:29:27;11.90;99.90
6357;DHT22;3211;53.452;-2.264;2022-08-06T03:32:11;11.90;99.90
6357;DHT22;3211;53.452;-2.264;2022-08-06T03:34:55;11.90;99.90
6357;DHT22;3211;53.452;-2.264;2022-08-06T03:37:38;11.90;99.90
6357;DHT22;3211;53.452;-2.264;2022-08-06T03:40:23;12.00;99.90
6357;DHT22;3211;53.452;-2.264;2022-08-06T03:43:05;12.00;99.90
6357;DHT22;3211;53.452;-2.264;2022-08-06T03:45:52;12.00;99.90
6357;DHT22;3211;53.452;-2.264;2022-08-06T03:48:37;12.00;99.90
6357;DHT22;3211;53.452;-2.264;2022-08-06T03:51:21;11.90;99.90
6357;DHT22;3211;53.452;-2.264;2022-08-06T03:54:04;11.90;99.90
6357;DHT22;3211;53.452;-2.264;2022-08-06T03:56:50;11.90;99.90
6357;DHT22;3211;53.452;-2.264;2022-08-06T03:59:34;11.80;99.90
6357;DHT22;3211;53.452;-2.264;2022-08-06T04:02:18;11.80;99.90
6357;DHT22;3211;53.452;-2.264;2022-08-06T04:05:02;11.70;99.90
6357;DHT22;3211;53.452;-2.264;2022-08-06T04:07:44;11.70;99.90
6357;DHT22;3211;53.452;-2.264;2022-08-06T04:10:29;11.70;99.90
6357;DHT22;3211;53.452;-2.264;2022-08-06T04:13:15;11.70;99.90
6357;DHT22;3211;53.452;-2.264;2022-08-06T04:15:58;11.70;99.90
6357;DHT22;3211;53.452;-2.264;2022-08-06T04:18:41;11.70;99.90
6357;DHT22;3211;53.452;-2.264;2022-08-06T04:21:24;11.70;99.90
6357;DHT22;3211;53.452;-2.264;2022-08-06T04:24:07;11.60;99.90
6357;DHT22;3211;53.452;-2.264;2022-08-06T04:26:52;11.60;99.90
6357;DHT22;3211;53.452;-2.264;2022-08-06T04:29:36;11.50;99.90
6357;DHT22;3211;53.452;-2.264;2022-08-06T04:32:20;11.50;99.90
6357;DHT22;3211;53.452;-2.264;2022-08-06T04:35:05;11.50;99.90
6357;DHT22;3211;53.452;-2.264;2022-08-06T04:37:48;11.50;99.90
6357;DHT22;3211;53.452;-2.264;2022-08-06T04:40:31;11.50;99.90
6357;DHT22;3211;53.452;-2.264;2022-08-06T04:43:13;11.40;99.90
6357;DHT22;3211;53.452;-2.264;2022-08-06T04:45:58;11.50;99.90
6357;DHT22;3211;53.452;-2.264;2022-08-06T04:48:40;11.40;99.90
6357;DHT22;3211;53.452;-2.264;2022-08-06T04:51:22;11.50;99.90
6357;DHT22;3211;53.452;-2.264;2022-08-06T04:54:05;11.50;99.90
6357;DHT22;3211;53.452;-2.264;2022-08-06T04:56:47;11.40;99.90
6357;DHT22;3211;53.452;-2.264;2022-08-06T04:59:29;11.50;99.90
6357;DHT22;3211;53.452;-2.264;2022-08-06T05:02:12;11.50;99.90
6357;DHT22;3211;53.452;-2.264;2022-08-06T05:04:55;11.50;99.90
6357;DHT22;3211;53.452;-2.264;2022-08-06T05:07:38;11.50;99.90
6357;DHT22;3211;53.452;-2.264;2022-08-06T05:10:21;11.70;99.90
6357;DHT22;3211;53.452;-2.264;2022-08-06T05:13:05;11.70;99.90
6357;DHT22;3211;53.452;-2.264;2022-08-06T05:15:51;11.60;99.90
6357;DHT22;3211;53.452;-2.264;2022-08-06T05:18:38;11.50;99.90
6357;DHT22;3211;53.452;-2.264;2022-08-06T05:21:27;11.50;99.90
6357;DHT22;3211;53.452;-2.264;2022-08-06T05:24:10;11.50;99.90
6357;DHT22;3211;53.452;-2.264;2022-08-06T05:26:54;11.40;99.90
6357;DHT22;3211;53.452;-2.264;2022-08-06T05:29:36;11.40;99.90
6357;DHT22;3211;53.452;-2.264;2022-08-06T05:32:18;11.50;99.90
6357;DHT22;3211;53.452;-2.264;2022-08-06T05:35:01;11.50;99.90
6357;DHT22;3211;53.452;-2.264;2022-08-06T05:37:43;11.60;99.90
6357;DHT22;3211;53.452;-2.264;2022-08-06T05:40:25;11.70;99.90
6357;DHT22;3211;53.452;-2.264;2022-08-06T05:43:14;11.70;99.90
6357;DHT22;3211;53.452;-2.264;2022-08-06T05:45:59;11.70;99.90
6357;DHT22;3211;53.452;-2.264;2022-08-06T05:48:45;11.70;99.90
6357;DHT22;3211;53.452;-2.264;2022-08-06T05:51:35;11.70;99.90
6357;DHT22;3211;53.452;-2.264;2022-08-06T05:54:23;11.70;99.90
6357;DHT22;3211;53.452;-2.264;2022-08-06T05:57:10;11.80;99.90
6357;DHT22;3211;53.452;-2.264;2022-08-06T05:59:58;11.80;99.90
6357;DHT22;3211;53.452;-2.264;2022-08-06T06:02:43;11.90;99.90
6357;DHT22;3211;53.452;-2.264;2022-08-06T06:05:25;12.00;99.90
6357;DHT22;3211;53.452;-2.264;2022-08-06T06:08:09;12.00;99.90
6357;DHT22;3211;53.452;-2.264;2022-08-06T06:10:52;12.20;99.90
6357;DHT22;3211;53.452;-2.264;2022-08-06T06:13:35;12.30;99.90
6357;DHT22;3211;53.452;-2.264;2022-08-06T06:16:23;12.30;99.90
6357;DHT22;3211;53.452;-2.264;2022-08-06T06:19:13;12.50;99.90
6357;DHT22;3211;53.452;-2.264;2022-08-06T06:22:02;12.50;99.90
6357;DHT22;3211;53.452;-2.264;2022-08-06T06:24:52;12.50;99.90
6357;DHT22;3211;53.452;-2.264;2022-08-06T06:27:45;12.50;99.90
6357;DHT22;3211;53.452;-2.264;2022-08-06T06:30:33;12.50;99.90
6357;DHT22;3211;53.452;-2.264;2022-08-06T06:33:20;12.60;99.90
6357;DHT22;3211;53.452;-2.264;2022-08-06T06:36:11;12.60;99.90
6357;DHT22;3211;53.452;-2.264;2022-08-06T06:39:00;12.70;99.90
6357;DHT22;3211;53.452;-2.264;2022-08-06T06:41:47;12.70;99.90
6357;DHT22;3211;53.452;-2.264;2022-08-06T06:44:35;12.70;99.90
6357;DHT22;3211;53.452;-2.264;2022-08-06T06:47:22;12.80;99.90
6357;DHT22;3211;53.452;-2.264;2022-08-06T06:50:10;12.70;99.90
6357;DHT22;3211;53.452;-2.264;2022-08-06T06:52:54;12.60;99.90
6357;DHT22;3211;53.452;-2.264;2022-08-06T06:55:38;12.70;99.90
6357;DHT22;3211;53.452;-2.264;2022-08-06T06:58:28;12.60;99.90
6357;DHT22;3211;53.452;-2.264;2022-08-06T07:01:15;12.70;99.90
6357;DHT22;3211;53.452;-2.264;2022-08-06T07:03:59;12.90;99.90
6357;DHT22;3211;53.452;-2.264;2022-08-06T07:06:42;13.10;99.90
6357;DHT22;3211;53.452;-2.264;2022-08-06T07:09:30;13.10;99.90
6357;DHT22;3211;53.452;-2.264;2022-08-06T07:12:15;13.00;99.90
6357;DHT22;3211;53.452;-2.264;2022-08-06T07:15:01;12.90;99.90
6357;DHT22;3211;53.452;-2.264;2022-08-06T07:17:43;13.30;99.90
6357;DHT22;3211;53.452;-2.264;2022-08-06T07:20:28;13.40;99.90
6357;DHT22;3211;53.452;-2.264;2022-08-06T07:23:11;13.20;99.90
6357;DHT22;3211;53.452;-2.264;2022-08-06T07:25:56;13.30;99.90
6357;DHT22;3211;53.452;-2.264;2022-08-06T07:28:40;13.50;99.90
6357;DHT22;3211;53.452;-2.264;2022-08-06T07:31:25;13.30;99.90
6357;DHT22;3211;53.452;-2.264;2022-08-06T07:34:07;13.50;99.90
6357;DHT22;3211;53.452;-2.264;2022-08-06T07:36:52;13.60;99.90
6357;DHT22;3211;53.452;-2.264;2022-08-06T07:39:37;13.70;99.90
6357;DHT22;3211;53.452;-2.264;2022-08-06T07:42:20;13.50;99.90
6357;DHT22;3211;53.452;-2.264;2022-08-06T07:45:07;13.60;99.90
6357;DHT22;3211;53.452;-2.264;2022-08-06T07:47:52;13.80;99.90
6357;DHT22;3211;53.452;-2.264;2022-08-06T07:50:37;13.80;99.90
6357;DHT22;3211;53.452;-2.264;2022-08-06T07:53:21;13.90;99.90
6357;DHT22;3211;53.452;-2.264;2022-08-06T07:56:04;13.90;99.90
6357;DHT22;3211;53.452;-2.264;2022-08-06T07:58:47;14.10;99.90
6357;DHT22;3211;53.452;-2.264;2022-08-06T08:01:31;14.30;99.90
6357;DHT22;3211;53.452;-2.264;2022-08-06T08:04:15;14.50;99.90
6357;DHT22;3211;53.452;-2.264;2022-08-06T08:07:15;14.40;99.90
6357;DHT22;3211;53.452;-2.264;2022-08-06T08:09:58;14.60;99.90
6357;DHT22;3211;53.452;-2.264;2022-08-06T08:12:42;14.80;99.90
6357;DHT22;3211;53.452;-2.264;2022-08-06T08:15:26;15.00;99.90
6357;DHT22;3211;53.452;-2.264;2022-08-06T08:18:08;15.00;99.90
6357;DHT22;3211;53.452;-2.264;2022-08-06T08:20:51;15.00;99.90
6357;DHT22;3211;53.452;-2.264;2022-08-06T08:23:34;15.00;99.90
6357;DHT22;3211;53.452;-2.264;2022-08-06T08:26:17;15.20;99.90
6357;DHT22;3211;53.452;-2.264;2022-08-06T08:28:59;15.40;99.90
6357;DHT22;3211;53.452;-2.264;2022-08-06T08:31:41;15.40;99.90
6357;DHT22;3211;53.452;-2.264;2022-08-06T08:34:23;15.50;99.90
6357;DHT22;3211;53.452;-2.264;2022-08-06T08:37:07;15.60;99.90
6357;DHT22;3211;53.452;-2.264;2022-08-06T08:39:49;15.70;99.90
6357;DHT22;3211;53.452;-2.264;2022-08-06T08:42:36;15.70;99.90
6357;DHT22;3211;53.452;-2.264;2022-08-06T08:45:21;15.70;99.90
6357;DHT22;3211;53.452;-2.264;2022-08-06T08:48:04;15.70;99.90
6357;DHT22;3211;53.452;-2.264;2022-08-06T08:50:47;15.90;99.90
6357;DHT22;3211;53.452;-2.264;2022-08-06T08:53:36;16.00;99.90
6357;DHT22;3211;53.452;-2.264;2022-08-06T08:56:19;16.30;99.90
6357;DHT22;3211;53.452;-2.264;2022-08-06T08:59:01;16.30;99.90
6357;DHT22;3211;53.452;-2.264;2022-08-06T09:01:45;16.10;99.90
6357;DHT22;3211;53.452;-2.264;2022-08-06T09:04:27;16.20;99.90
6357;DHT22;3211;53.452;-2.264;2022-08-06T09:07:09;16.30;99.90
6357;DHT22;3211;53.452;-2.264;2022-08-06T09:09:53;16.60;99.90
6357;DHT22;3211;53.452;-2.264;2022-08-06T09:12:35;16.60;99.90
6357;DHT22;3211;53.452;-2.264;2022-08-06T09:15:18;16.40;99.90
6357;DHT22;3211;53.452;-2.264;2022-08-06T09:18:00;16.70;99.90
6357;DHT22;3211;53.452;-2.264;2022-08-06T09:20:41;16.70;99.90
6357;DHT22;3211;53.452;-2.264;2022-08-06T09:23:23;16.70;99.90
6357;DHT22;3211;53.452;-2.264;2022-08-06T09:26:07;16.70;99.90
6357;DHT22;3211;53.452;-2.264;2022-08-06T09:28:49;16.70;99.90
6357;DHT22;3211;53.452;-2.264;2022-08-06T09:31:36;16.80;99.90
6357;DHT22;3211;53.452;-2.264;2022-08-06T09:34:18;16.70;99.90
6357;DHT22;3211;53.452;-2.264;2022-08-06T09:37:00;16.70;99.90
6357;DHT22;3211;53.452;-2.264;2022-08-06T09:39:42;16.80;99.90
6357;DHT22;3211;53.452;-2.264;2022-08-06T09:42:38;16.90;99.90
6357;DHT22;3211;53.452;-2.264;2022-08-06T09:45:22;16.80;99.90
6357;DHT22;3211;53.452;-2.264;2022-08-06T09:48:06;16.70;99.90
6357;DHT22;3211;53.452;-2.264;2022-08-06T09:50:49;16.80;99.90
6357;DHT22;3211;53.452;-2.264;2022-08-06T09:53:31;16.90;99.90
6357;DHT22;3211;53.452;-2.264;2022-08-06T09:56:15;16.90;99.90
6357;DHT22;3211;53.452;-2.264;2022-08-06T09:59:00;16.90;99.90
6357;DHT22;3211;53.452;-2.264;2022-08-06T10:01:44;17.00;99.90
6357;DHT22;3211;53.452;-2.264;2022-08-06T10:04:27;17.10;99.90
6357;DHT22;3211;53.452;-2.264;2022-08-06T10:07:09;17.20;99.90
6357;DHT22;3211;53.452;-2.264;2022-08-06T10:09:52;17.30;99.90
6357;DHT22;3211;53.452;-2.264;2022-08-06T10:12:36;17.30;99.90
6357;DHT22;3211;53.452;-2.264;2022-08-06T10:15:28;17.20;99.90
6357;DHT22;3211;53.452;-2.264;2022-08-06T10:18:28;17.30;99.90
6357;DHT22;3211;53.452;-2.264;2022-08-06T10:21:13;17.40;99.90
6357;DHT22;3211;53.452;-2.264;2022-08-06T10:24:00;17.70;99.90
6357;DHT22;3211;53.452;-2.264;2022-08-06T10:26:42;17.60;99.90
6357;DHT22;3211;53.452;-2.264;2022-08-06T10:29:28;18.00;99.90
6357;DHT22;3211;53.452;-2.264;2022-08-06T10:32:16;18.00;99.90
6357;DHT22;3211;53.452;-2.264;2022-08-06T10:35:01;18.00;99.90
6357;DHT22;3211;53.452;-2.264;2022-08-06T10:37:45;17.70;99.90
6357;DHT22;3211;53.452;-2.264;2022-08-06T10:40:30;17.60;99.90
6357;DHT22;3211;53.452;-2.264;2022-08-06T10:43:13;17.50;99.90
6357;DHT22;3211;53.452;-2.264;2022-08-06T10:45:56;17.60;99.90
6357;DHT22;3211;53.452;-2.264;2022-08-06T10:48:40;17.40;99.90
6357;DHT22;3211;53.452;-2.264;2022-08-06T10:51:22;17.50;99.90
6357;DHT22;3211;53.452;-2.264;2022-08-06T10:54:05;17.50;99.90
6357;DHT22;3211;53.452;-2.264;2022-08-06T10:56:47;17.50;99.90
6357;DHT22;3211;53.452;-2.264;2022-08-06T10:59:29;17.50;99.90
6357;DHT22;3211;53.452;-2.264;2022-08-06T11:02:19;17.50;99.90
6357;DHT22;3211;53.452;-2.264;2022-08-06T11:05:09;17.60;99.90
6357;DHT22;3211;53.452;-2.264;2022-08-06T11:08:09;17.50;99.90
6357;DHT22;3211;53.452;-2.264;2022-08-06T11:11:14;17.60;99.90
6357;DHT22;3211;53.452;-2.264;2022-08-06T11:14:02;17.50;99.90
6357;DHT22;3211;53.452;-2.264;2022-08-06T11:16:56;17.50;99.90
6357;DHT22;3211;53.452;-2.264;2022-08-06T11:19:41;17.50;99.90
6357;DHT22;3211;53.452;-2.264;2022-08-06T11:22:35;17.50;99.90
6357;DHT22;3211;53.452;-2.264;2022-08-06T11:25:18;17.40;99.90
6357;DHT22;3211;53.452;-2.264;2022-08-06T11:28:19;17.60;99.90
6357;DHT22;3211;53.452;-2.264;2022-08-06T11:31:02;17.40;99.90
6357;DHT22;3211;53.452;-2.264;2022-08-06T11:34:01;17.50;99.90
6357;DHT22;3211;53.452;-2.264;2022-08-06T11:36:49;17.70;99.90
6357;DHT22;3211;53.452;-2.264;2022-08-06T11:40:05;17.80;99.90
6357;DHT22;3211;53.452;-2.264;2022-08-06T11:42:47;17.80;99.90
6357;DHT22;3211;53.452;-2.264;2022-08-06T11:45:29;17.90;99.90
6357;DHT22;3211;53.452;-2.264;2022-08-06T11:48:12;17.90;99.90
6357;DHT22;3211;53.452;-2.264;2022-08-06T11:50:54;17.90;99.90
6357;DHT22;3211;53.452;-2.264;2022-08-06T11:53:37;18.20;99.90
6357;DHT22;3211;53.452;-2.264;2022-08-06T11:56:21;18.40;99.90
6357;DHT22;3211;53.452;-2.264;2022-08-06T11:59:13;18.00;99.90
6357;DHT22;3211;53.452;-2.264;2022-08-06T12:01:55;18.50;99.90
6357;DHT22;3211;53.452;-2.264;2022-08-06T12:04:41;18.50;99.90
6357;DHT22;3211;53.452;-2.264;2022-08-06T12:07:26;18.40;99.90
6357;DHT22;3211;53.452;-2.264;2022-08-06T12:10:10;18.50;99.90
6357;DHT22;3211;53.452;-2.264;2022-08-06T12:12:53;18.80;99.90
6357;DHT22;3211;53.452;-2.264;2022-08-06T12:15:36;18.80;99.90
6357;DHT22;3211;53.452;-2.264;2022-08-06T12:18:19;18.90;99.90
6357;DHT22;3211;53.452;-2.264;2022-08-06T12:21:09;19.00;99.90
6357;DHT22;3211;53.452;-2.264;2022-08-06T12:23:51;19.00;99.90
6357;DHT22;3211;53.452;-2.264;2022-08-06T12:26:34;19.20;99.90
6357;DHT22;3211;53.452;-2.264;2022-08-06T12:29:19;19.20;99.90
6357;DHT22;3211;53.452;-2.264;2022-08-06T12:32:01;19.20;99.90
6357;DHT22;3211;53.452;-2.264;2022-08-06T12:34:42;19.00;99.90
6357;DHT22;3211;53.452;-2.264;2022-08-06T12:37:33;19.20;99.90
6357;DHT22;3211;53.452;-2.264;2022-08-06T12:40:17;19.20;99.90
6357;DHT22;3211;53.452;-2.264;2022-08-06T12:43:11;19.00;99.90
6357;DHT22;3211;53.452;-2.264;2022-08-06T12:45:58;18.90;99.90
6357;DHT22;3211;53.452;-2.264;2022-08-06T12:48:45;18.90;99.90
6357;DHT22;3211;53.452;-2.264;2022-08-06T12:51:28;18.80;99.90
6357;DHT22;3211;53.452;-2.264;2022-08-06T12:54:10;18.90;99.90
6357;DHT22;3211;53.452;-2.264;2022-08-06T12:56:53;19.10;99.90
6357;DHT22;3211;53.452;-2.264;2022-08-06T12:59:36;18.90;99.90
6357;DHT22;3211;53.452;-2.264;2022-08-06T13:02:21;18.60;99.90
6357;DHT22;3211;53.452;-2.264;2022-08-06T13:05:05;18.90;99.90
6357;DHT22;3211;53.452;-2.264;2022-08-06T13:07:47;19.20;99.90
6357;DHT22;3211;53.452;-2.264;2022-08-06T13:10:30;19.10;99.90
6357;DHT22;3211;53.452;-2.264;2022-08-06T13:13:12;19.00;99.90
6357;DHT22;3211;53.452;-2.264;2022-08-06T13:16:00;18.80;99.90
6357;DHT22;3211;53.452;-2.264;2022-08-06T13:19:04;18.80;99.90
6357;DHT22;3211;53.452;-2.264;2022-08-06T13:21:58;18.90;99.90
6357;DHT22;3211;53.452;-2.264;2022-08-06T13:24:40;19.20;99.90
6357;DHT22;3211;53.452;-2.264;2022-08-06T13:27:31;19.20;99.90
6357;DHT22;3211;53.452;-2.264;2022-08-06T13:30:13;19.50;99.90
6357;DHT22;3211;53.452;-2.264;2022-08-06T13:33:11;19.60;99.90
6357;DHT22;3211;53.452;-2.264;2022-08-06T13:36:06;20.10;99.90
6357;DHT22;3211;53.452;-2.264;2022-08-06T13:38:51;20.30;99.90
6357;DHT22;3211;53.452;-2.264;2022-08-06T13:41:33;20.50;99.90
6357;DHT22;3211;53.452;-2.264;2022-08-06T13:44:29;20.60;99.90
6357;DHT22;3211;53.452;-2.264;2022-08-06T13:47:13;20.50;99.90
6357;DHT22;3211;53.452;-2.264;2022-08-06T13:49:57;21.00;99.90
6357;DHT22;3211;53.452;-2.264;2022-08-06T13:52:40;21.70;99.70
6357;DHT22;3211;53.452;-2.264;2022-08-06T13:55:23;21.10;99.50
6357;DHT22;3211;53.452;-2.264;2022-08-06T13:58:06;20.90;99.70
6357;DHT22;3211;53.452;-2.264;2022-08-06T14:00:49;20.80;99.40
6357;DHT22;3211;53.452;-2.264;2022-08-06T14:03:31;21.00;99.50
6357;DHT22;3211;53.452;-2.264;2022-08-06T14:06:13;21.20;99.20
6357;DHT22;3211;53.452;-2.264;2022-08-06T14:08:56;21.20;99.10
6357;DHT22;3211;53.452;-2.264;2022-08-06T14:11:38;20.70;99.50
6357;DHT22;3211;53.452;-2.264;2022-08-06T14:14:21;20.80;99.50
6357;DHT22;3211;53.452;-2.264;2022-08-06T14:17:03;21.00;99.30
6357;DHT22;3211;53.452;-2.264;2022-08-06T14:19:45;20.40;99.90
6357;DHT22;3211;53.452;-2.264;2022-08-06T14:22:27;20.60;99.90
6357;DHT22;3211;53.452;-2.264;2022-08-06T14:25:10;20.30;99.90
6357;DHT22;3211;53.452;-2.264;2022-08-06T14:27:53;20.10;99.90
6357;DHT22;3211;53.452;-2.264;2022-08-06T14:30:35;20.20;99.90
6357;DHT22;3211;53.452;-2.264;2022-08-06T14:33:17;20.20;99.90
6357;DHT22;3211;53.452;-2.264;2022-08-06T14:35:59;21.30;99.30
6357;DHT22;3211;53.452;-2.264;2022-08-06T14:38:41;21.30;98.90
6357;DHT22;3211;53.452;-2.264;2022-08-06T14:41:26;21.30;99.00
6357;DHT22;3211;53.452;-2.264;2022-08-06T14:44:26;20.60;99.40
6357;DHT22;3211;53.452;-2.264;2022-08-06T14:47:25;21.20;99.30
6357;DHT22;3211;53.452;-2.264;2022-08-06T14:50:07;22.00;98.60
6357;DHT22;3211;53.452;-2.264;2022-08-06T14:52:49;22.50;97.60
6357;DHT22;3211;53.452;-2.264;2022-08-06T14:55:31;22.90;97.10
6357;DHT22;3211;53.452;-2.264;2022-08-06T14:58:15;22.70;97.00
6357;DHT22;3211;53.452;-2.264;2022-08-06T15:00:57;22.00;97.90
6357;DHT22;3211;53.452;-2.264;2022-08-06T15:03:38;21.80;97.80
6357;DHT22;3211;53.452;-2.264;2022-08-06T15:06:20;23.10;96.00
6357;DHT22;3211;53.452;-2.264;2022-08-06T15:09:03;25.90;95.10
6357;DHT22;3211;53.452;-2.264;2022-08-06T15:11:45;23.90;95.40
6357;DHT22;3211;53.452;-2.264;2022-08-06T15:14:28;21.80;96.90
6357;DHT22;3211;53.452;-2.264;2022-08-06T15:17:10;21.60;97.70
6357;DHT22;3211;53.452;-2.264;2022-08-06T15:19:52;21.20;98.30
6357;DHT22;3211;53.452;-2.264;2022-08-06T15:22:34;21.40;98.40
6357;DHT22;3211;53.452;-2.264;2022-08-06T15:25:16;21.40;98.30
6357;DHT22;3211;53.452;-2.264;2022-08-06T15:27:58;25.80;93.90
6357;DHT22;3211;53.452;-2.264;2022-08-06T15:30:43;25.00;94.30
6357;DHT22;3211;53.452;-2.264;2022-08-06T15:33:25;23.90;94.80
6357;DHT22;3211;53.452;-2.264;2022-08-06T15:36:08;24.90;94.50
6357;DHT22;3211;53.452;-2.264;2022-08-06T15:38:50;27.60;91.10
6357;DHT22;3211;53.452;-2.264;2022-08-06T15:41:34;28.00;89.30
6357;DHT22;3211;53.452;-2.264;2022-08-06T15:44:16;27.00;90.50
6357;DHT22;3211;53.452;-2.264;2022-08-06T15:46:59;26.40;90.30
6357;DHT22;3211;53.452;-2.264;2022-08-06T15:49:41;28.30;87.90
6357;DHT22;3211;53.452;-2.264;2022-08-06T15:52:23;26.90;89.80
6357;DHT22;3211;53.452;-2.264;2022-08-06T15:55:05;28.00;88.60
6357;DHT22;3211;53.452;-2.264;2022-08-06T15:57:48;28.70;88.10
6357;DHT22;3211;53.452;-2.264;2022-08-06T16:00:30;28.20;86.90
6357;DHT22;3211;53.452;-2.264;2022-08-06T16:03:14;27.10;88.60
6357;DHT22;3211;53.452;-2.264;2022-08-06T16:05:56;27.80;88.60
6357;DHT22;3211;53.452;-2.264;2022-08-06T16:08:38;29.10;87.10
6357;DHT22;3211;53.452;-2.264;2022-08-06T16:11:20;29.40;85.00
6357;DHT22;3211;53.452;-2.264;2022-08-06T16:14:02;29.40;84.60
6357;DHT22;3211;53.452;-2.264;2022-08-06T16:16:44;29.80;83.70
6357;DHT22;3211;53.452;-2.264;2022-08-06T16:19:28;28.80;83.30
6357;DHT22;3211;53.452;-2.264;2022-08-06T16:22:10;28.00;83.30
6357;DHT22;3211;53.452;-2.264;2022-08-06T16:24:52;27.90;85.20
6357;DHT22;3211;53.452;-2.264;2022-08-06T16:27:34;28.20;84.60
6357;DHT22;3211;53.452;-2.264;2022-08-06T16:30:16;30.80;81.10
6357;DHT22;3211;53.452;-2.264;2022-08-06T16:32:58;28.70;82.60
6357;DHT22;3211;53.452;-2.264;2022-08-06T16:35:42;26.80;84.40
6357;DHT22;3211;53.452;-2.264;2022-08-06T16:38:25;26.80;85.40
6357;DHT22;3211;53.452;-2.264;2022-08-06T16:41:07;26.50;88.40
6357;DHT22;3211;53.452;-2.264;2022-08-06T16:43:50;26.10;88.90
6357;DHT22;3211;53.452;-2.264;2022-08-06T16:46:32;24.90;90.10
6357;DHT22;3211;53.452;-2.264;2022-08-06T16:49:14;24.10;91.00
6357;DHT22;3211;53.452;-2.264;2022-08-06T16:51:57;24.40;91.00
6357;DHT22;3211;53.452;-2.264;2022-08-06T16:54:39;24.30;90.70
6357;DHT22;3211;53.452;-2.264;2022-08-06T16:57:21;23.60;91.90
6357;DHT22;3211;53.452;-2.264;2022-08-06T17:00:04;23.50;92.10
6357;DHT22;3211;53.452;-2.264;2022-08-06T17:02:47;23.50;92.00
6357;DHT22;3211;53.452;-2.264;2022-08-06T17:05:31;23.50;91.60
6357;DHT22;3211;53.452;-2.264;2022-08-06T17:08:16;23.20;92.00
6357;DHT22;3211;53.452;-2.264;2022-08-06T17:10:58;23.00;92.40
6357;DHT22;3211;53.452;-2.264;2022-08-06T17:13:40;23.30;92.20
6357;DHT22;3211;53.452;-2.264;2022-08-06T17:16:22;23.30;92.30
6357;DHT22;3211;53.452;-2.264;2022-08-06T17:19:06;23.10;93.40
6357;DHT22;3211;53.452;-2.264;2022-08-06T17:21:48;22.90;93.20
6357;DHT22;3211;53.452;-2.264;2022-08-06T17:24:34;22.80;93.00
6357;DHT22;3211;53.452;-2.264;2022-08-06T17:27:16;22.90;92.60
6357;DHT22;3211;53.452;-2.264;2022-08-06T17:29:58;22.50;93.30
6357;DHT22;3211;53.452;-2.264;2022-08-06T17:32:41;22.30;93.40
6357;DHT22;3211;53.452;-2.264;2022-08-06T17:35:28;21.80;93.90
6357;DHT22;3211;53.452;-2.264;2022-08-06T17:38:11;21.80;93.70